Time;durP1;ratioP1;P1;durP2;ratioP2;P2;SDS_P1;SDS_P2;PMS_P1;PMS_P2;Temp;Humidity;BMP_temperature;BMP_pressure;BME280_temperature;BME280_humidity;BME280_pressure;Samples;Min_cycle;Max_cycle;Signal;HPM_P1;HPM_P2
2022/12/15 00:40:35;;;;;;;27.33;15.85;;;-3272.80;88.90;;;;;;5054160;28;20063;-40
2022/12/15 00:43:02;;;;;;;24.35;15.30;;;-3272.80;88.90;;;;;;5036532;28;20029;-41
2022/12/15 00:48:14;;;;;;;29.80;15.63;;;-3272.90;89.30;;;;;;5040436;28;20086;-42
2022/12/15 00:50:52;;;;;;;27.95;15.60;;;-3272.90;89.60;;;;;;5053592;28;20037;-41
2022/12/15 01:21:05;;;;;;;22.40;14.38;;;-3273.00;89.60;;;;;;5013067;28;20475;-43
2022/12/15 01:23:32;;;;;;;22.50;14.25;;;-3273.00;89.80;;;;;;5013567;28;20026;-41
2022/12/15 01:26:02;;;;;;;21.33;13.75;;;-3273.00;89.80;;;;;;5024019;28;20120;-42
2022/12/15 01:28:29;;;;;;;22.75;13.82;;;-3273.10;90.00;;;;;;5013334;28;20029;-41
2022/12/15 01:30:57;;;;;;;20.92;12.27;;;-3273.20;90.10;;;;;;5023544;28;20092;-41
2022/12/15 01:33:22;;;;;;;23.95;12.77;;;-3273.20;90.30;;;;;;5052889;28;20091;-43
2022/12/15 01:36:00;;;;;;;21.00;12.40;;;-3273.30;90.60;;;;;;5050306;28;20025;-43
2022/12/15 01:38:28;;;;;;;23.08;13.48;;;-3273.50;90.80;;;;;;5052694;28;20381;-43
2022/12/15 01:41:00;;;;;;;19.77;13.50;;;-3273.60;90.80;;;;;;5050446;28;20040;-42
2022/12/15 01:43:34;;;;;;;18.48;12.57;;;-3273.60;90.70;;;;;;5032862;28;20075;-43
2022/12/15 01:46:06;;;;;;;20.30;12.98;;;-3273.70;90.70;;;;;;5032843;28;20021;-41
2022/12/15 01:48:56;;;;;;;19.20;12.10;;;-3273.70;90.50;;;;;;5039373;28;20029;-41
2022/12/15 01:51:30;;;;;;;20.05;12.68;;;-3273.60;90.20;;;;;;5052750;28;20033;-45
2022/12/15 01:54:07;;;;;;;20.25;13.65;;;-3273.60;90.20;;;;;;5051583;28;20458;-41
2022/12/15 01:56:39;;;;;;;25.33;13.63;;;-3273.60;90.10;;;;;;5053109;28;20040;-41
2022/12/15 01:59:09;;;;;;;21.45;13.10;;;-3273.50;90.10;;;;;;5035468;28;20112;-43
2022/12/15 02:01:35;;;;;;;22.95;13.65;;;-3273.50;90.00;;;;;;5032815;28;20068;-41
2022/12/15 02:04:02;;;;;;;20.25;13.20;;;-3273.40;89.80;;;;;;5031770;28;20067;-41
2022/12/15 02:06:30;;;;;;;23.63;13.25;;;-3273.40;89.80;;;;;;5032219;28;20052;-41
2022/12/15 02:08:59;;;;;;;19.85;12.57;;;-3273.30;89.80;;;;;;5031629;28;20072;-42
2022/12/15 02:11:43;;;;;;;;;;;-3273.30;89.90;;;;;;5024478;28;20320;-42
2022/12/15 02:14:19;;;;;;;17.50;11.65;;;-3273.30;90.00;;;;;;5022282;28;19913;-41
2022/12/15 02:17:08;;;;;;;19.73;12.40;;;-3273.30;90.00;;;;;;5021970;28;20044;-42
2022/12/15 02:19:53;;;;;;;22.77;13.00;;;-3273.30;90.10;;;;;;5026801;28;20528;-41
2022/12/15 02:23:16;;;;;;;20.90;12.88;;;-3273.40;90.10;;;;;;5023317;28;20061;-44
2022/12/15 02:26:25;;;;;;;15.85;11.20;;;-3273.40;90.30;;;;;;5018214;28;20034;-44
2022/12/15 02:29:13;;;;;;;18.00;11.77;;;-3273.50;90.50;;;;;;5020658;28;20104;-42
2022/12/15 02:31:59;;;;;;;21.40;10.82;;;-3273.60;90.60;;;;;;5032762;28;20040;-43
2022/12/15 02:35:03;;;;;;;19.75;12.02;;;-3273.60;90.50;;;;;;5028240;28;20030;-42
2022/12/15 02:37:38;;;;;;;16.40;10.43;;;-3273.50;90.60;;;;;;5036293;28;20068;-43
2022/12/15 02:40:08;;;;;;;17.15;11.32;;;-3273.50;90.60;;;;;;5036042;28;20120;-45
2022/12/15 02:42:41;;;;;;;15.98;10.70;;;-3273.60;90.70;;;;;;5035989;28;20108;-42
2022/12/15 02:45:14;;;;;;;22.13;11.52;;;-3273.50;90.60;;;;;;5036352;28;20389;-42
2022/12/15 02:47:58;;;;;;;19.63;12.65;;;-3273.50;90.70;;;;;;5035368;28;20036;-45
2022/12/15 02:51:10;;;;;;;18.25;11.05;;;-3273.60;90.80;;;;;;5036003;28;20144;-43
2022/12/15 02:54:02;;;;;;;20.13;10.50;;;-3273.60;91.00;;;;;;5028593;28;20048;-42
2022/12/15 02:56:55;;;;;;;16.92;10.23;;;-3273.80;91.30;;;;;;5027934;28;20359;-43
2022/12/15 02:59:36;;;;;;;18.20;10.68;;;-3273.90;91.80;;;;;;5025095;28;20050;-42
2022/12/15 03:02:05;;;;;;;22.75;12.05;;;-3274.10;92.10;;;;;;5015932;28;20034;-44
2022/12/15 03:04:32;;;;;;;17.55;12.00;;;-3274.30;92.30;;;;;;5020491;28;20477;-41
2022/12/15 03:07:03;;;;;;;19.02;10.88;;;-3274.40;92.50;;;;;;5055750;28;20052;-42
2022/12/15 03:09:30;;;;;;;16.98;10.57;;;-3274.50;92.70;;;;;;5055472;28;20025;-41
2022/12/15 03:11:58;;;;;;;16.73;10.70;;;-3274.60;92.90;;;;;;5043483;28;20022;-43
2022/12/15 03:14:26;;;;;;;17.17;10.25;;;-3274.80;93.00;;;;;;5034381;28;20033;-42
2022/12/15 03:16:54;;;;;;;20.52;12.15;;;-3274.80;93.00;;;;;;5035909;28;20026;-40
2022/12/15 03:19:24;;;;;;;15.35;10.30;;;-3274.90;92.90;;;;;;5035441;28;20052;-42
2022/12/15 03:21:51;;;;;;;16.90;11.00;;;-3274.90;92.90;;;;;;5035325;28;20030;-44
2022/12/15 03:24:17;;;;;;;18.25;11.25;;;-3274.90;92.70;;;;;;5035927;28;20465;-42
2022/12/15 03:26:47;;;;;;;19.40;10.80;;;-3274.90;92.60;;;;;;5055422;28;20056;-46
2022/12/15 03:29:14;;;;;;;;;;;-3274.80;92.50;;;;;;5055783;28;20096;-43
2022/12/15 03:31:43;;;;;;;20.33;10.68;;;-3274.70;92.40;;;;;;5053508;28;19905;-41
2022/12/15 03:34:10;;;;;;;18.90;12.40;;;-3274.60;92.30;;;;;;5055091;28;20052;-43
2022/12/15 03:36:37;;;;;;;18.92;12.77;;;-3274.60;92.20;;;;;;5045559;28;20454;-42
2022/12/15 03:39:04;;;;;;;22.10;12.90;;;-3274.50;92.00;;;;;;5035307;28;20029;-41
2022/12/15 03:41:31;;;;;;;20.52;13.60;;;-3274.40;91.90;;;;;;5033831;28;20022;-42
2022/12/15 03:43:57;;;;;;;18.25;11.48;;;-3274.30;91.70;;;;;;5034904;28;20033;-41
2022/12/15 03:46:23;;;;;;;19.25;11.75;;;-3274.30;91.70;;;;;;5035249;28;20450;-41
2022/12/15 03:48:51;;;;;;;18.42;11.68;;;-3274.20;91.60;;;;;;5034785;28;20091;-43
2022/12/15 03:51:20;;;;;;;18.67;11.38;;;-3274.20;91.60;;;;;;5039969;28;20098;-44
2022/12/15 03:53:48;;;;;;;17.95;11.65;;;-3274.10;91.60;;;;;;5053491;28;20029;-41
2022/12/15 03:56:15;;;;;;;18.30;10.73;;;-3274.10;91.60;;;;;;5054793;28;20029;-42
2022/12/15 03:58:42;;;;;;;15.35;10.18;;;-3274.10;91.70;;;;;;5044611;28;20095;-41
2022/12/15 04:01:17;;;;;;;20.55;12.40;;;-3274.10;91.70;;;;;;5034777;28;20033;-43
2022/12/15 04:03:45;;;;;;;19.60;11.73;;;-3274.10;91.60;;;;;;5033701;28;20099;-41
2022/12/15 04:06:10;;;;;;;16.45;11.57;;;-3274.10;91.50;;;;;;5024053;28;20474;-41
2022/12/15 04:08:37;;;;;;;17.15;12.32;;;-3273.90;91.40;;;;;;5053718;28;20021;-43
2022/12/15 04:11:04;;;;;;;17.08;11.30;;;-3273.90;91.50;;;;;;5054422;28;20513;-41
2022/12/15 04:13:31;;;;;;;23.65;12.75;;;-3273.90;91.50;;;;;;5054378;28;20041;-41
2022/12/15 04:16:02;;;;;;;21.33;13.18;;;-3273.90;91.50;;;;;;5037899;28;20112;-42
2022/12/15 04:18:33;;;;;;;19.02;11.07;;;-3273.90;91.50;;;;;;5034770;28;20324;-42
2022/12/15 04:21:00;;;;;;;18.65;12.60;;;-3273.90;91.50;;;;;;5034386;28;20443;-41
2022/12/15 04:23:29;;;;;;;18.25;12.05;;;-3273.90;91.50;;;;;;5033992;28;20509;-41
2022/12/15 05:32:31;;;;;;;15.23;9.60;;;-3273.50;91.10;;;;;;5015623;28;20041;-40
2022/12/15 05:35:00;;;;;;;15.43;9.70;;;-3273.50;91.00;;;;;;5013185;28;20018;-45
2022/12/15 05:37:30;;;;;;;15.13;9.27;;;-3273.50;91.00;;;;;;5027070;28;20120;-41
2022/12/15 05:39:56;;;;;;;15.02;9.27;;;-3273.50;91.00;;;;;;5032685;28;20079;-41
2022/12/15 05:42:23;;;;;;;14.90;9.88;;;-3273.60;91.00;;;;;;5030586;28;20069;-40
2022/12/15 05:44:48;;;;;;;16.10;10.07;;;-3273.60;91.00;;;;;;5052692;28;20035;-41
2022/12/15 05:47:15;;;;;;;15.90;9.80;;;-3273.60;91.00;;;;;;5032701;28;20110;-45
2022/12/15 05:49:41;;;;;;;20.17;12.60;;;-3273.70;91.10;;;;;;5037864;28;20458;-43
2022/12/15 05:52:08;;;;;;;15.82;9.98;;;-3273.70;91.10;;;;;;5016994;28;20037;-43
2022/12/15 05:54:34;;;;;;;16.25;10.25;;;-3273.70;91.00;;;;;;5013240;28;20391;-41
2022/12/15 05:57:01;;;;;;;14.85;9.85;;;-3273.70;91.00;;;;;;5021355;28;20612;-41
2022/12/15 05:59:28;;;;;;;17.80;10.00;;;-3273.80;91.20;;;;;;5014664;28;20064;-41
2022/12/15 06:01:55;;;;;;;17.63;10.00;;;-3273.80;91.20;;;;;;5015458;28;20880;-41
2022/12/15 06:04:22;;;;;;;18.48;11.00;;;-3273.80;91.20;;;;;;5018202;28;20025;-41
2022/12/15 06:06:48;;;;;;;21.40;10.52;;;-3273.90;91.20;;;;;;5024556;28;20352;-43
2022/12/15 06:09:16;;;;;;;17.42;12.32;;;-3273.90;91.30;;;;;;5026308;28;20036;-41
2022/12/15 06:11:42;;;;;;;22.48;11.18;;;-3273.90;91.40;;;;;;5025177;28;20100;-41
2022/12/15 06:14:09;;;;;;;17.52;10.55;;;-3274.00;91.40;;;;;;5030996;28;20112;-42
2022/12/15 06:16:36;;;;;;;16.90;11.05;;;-3274.10;91.40;;;;;;5028994;28;20029;-42
2022/12/15 06:19:03;;;;;;;20.42;13.15;;;-3274.10;91.50;;;;;;5022973;28;20446;-42
2022/12/15 06:21:35;;;;;;;18.38;11.27;;;-3274.10;91.50;;;;;;5019535;28;20382;-41
2022/12/15 06:24:03;;;;;;;17.52;12.23;;;-3274.20;91.60;;;;;;5029485;28;20057;-41
2022/12/15 06:26:32;;;;;;;16.98;10.68;;;-3274.30;91.80;;;;;;5035386;28;20039;-41
2022/12/15 06:29:03;;;;;;;17.20;11.63;;;-3274.40;92.10;;;;;;5031768;28;20028;-40
2022/12/15 06:31:30;;;;;;;18.38;12.00;;;-3274.50;92.30;;;;;;5040024;28;20040;-45
2022/12/15 06:33:57;;;;;;;20.90;11.35;;;-3274.60;92.00;;;;;;5038428;28;20026;-43
2022/12/15 06:36:24;;;;;;;15.18;10.27;;;-3274.60;92.00;;;;;;5028763;28;20099;-41
2022/12/15 06:38:51;;;;;;;19.08;11.05;;;-3274.60;91.90;;;;;;5032039;28;20064;-41
2022/12/15 06:41:21;;;;;;;16.30;11.18;;;-3274.60;91.80;;;;;;5030816;28;20049;-42
2022/12/15 06:43:52;;;;;;;;;;;-3274.70;91.80;;;;;;5032260;28;20746;-40
2022/12/15 06:46:19;;;;;;;15.77;10.27;;;-3274.70;91.80;;;;;;5027245;28;20000;-43
2022/12/15 06:48:46;;;;;;;13.88;9.43;;;-3274.60;91.90;;;;;;5035595;28;20557;-41
2022/12/15 06:51:15;;;;;;;14.43;9.50;;;-3274.70;92.00;;;;;;5037257;28;20025;-42
2022/12/15 06:53:47;;;;;;;18.75;11.57;;;-3274.70;92.10;;;;;;5030087;28;20477;-42
2022/12/15 06:56:23;;;;;;;17.63;9.60;;;-3274.70;92.10;;;;;;5029078;28;20049;-41
2022/12/15 06:58:51;;;;;;;17.15;10.98;;;-3274.80;92.20;;;;;;5024620;28;20325;-41
2022/12/15 07:01:21;;;;;;;16.65;10.65;;;-3274.80;92.30;;;;;;5031539;28;20374;-43
2022/12/15 07:03:47;;;;;;;;;;;-3274.80;92.30;;;;;;5028480;28;20546;-43
2022/12/15 07:06:19;;;;;;;19.10;11.40;;;-3274.90;92.50;;;;;;5028837;28;19952;-43
2022/12/15 07:08:55;;;;;;;18.05;10.45;;;-3274.90;92.60;;;;;;5031635;28;20026;-41
2022/12/15 07:11:22;;;;;;;16.35;11.30;;;-3275.10;92.80;;;;;;5034110;28;20045;-40
2022/12/15 07:13:49;;;;;;;19.50;11.48;;;-3275.10;92.80;;;;;;5038353;28;20037;-43
2022/12/15 07:16:19;;;;;;;17.08;11.25;;;-3275.10;92.80;;;;;;5020549;28;20025;-43
2022/12/15 07:18:46;;;;;;;18.67;12.43;;;-3275.20;92.90;;;;;;5034710;28;20108;-42
2022/12/15 07:21:13;;;;;;;19.27;11.38;;;-3275.30;92.90;;;;;;5034442;28;20558;-40
2022/12/15 07:23:39;;;;;;;21.15;13.07;;;-3275.30;92.90;;;;;;5035376;28;20124;-41
2022/12/15 07:26:07;;;;;;;19.95;13.15;;;-3275.30;92.90;;;;;;5034884;28;20034;-41
2022/12/15 07:28:35;;;;;;;17.40;12.30;;;-3275.30;92.90;;;;;;5032071;28;20086;-40
2022/12/15 07:31:06;;;;;;;17.70;11.93;;;-3275.30;93.00;;;;;;5025347;28;20030;-40
2022/12/15 07:33:33;;;;;;;15.50;11.27;;;-3275.30;93.00;;;;;;5015156;28;20065;-40
2022/12/15 07:36:03;;;;;;;18.55;12.63;;;-3275.30;93.10;;;;;;5023601;28;20034;-41
2022/12/15 07:38:30;;;;;;;22.92;13.23;;;-3275.40;93.10;;;;;;5030946;28;20029;-42
2022/12/15 07:41:02;;;;;;;18.20;12.70;;;-3275.40;93.10;;;;;;5021627;28;20042;-43
2022/12/15 07:43:29;;;;;;;17.85;12.35;;;-3275.40;93.10;;;;;;5025670;28;20470;-40
2022/12/15 07:45:56;;;;;;;21.45;12.48;;;-3275.50;93.20;;;;;;5049747;28;20025;-41
2022/12/15 07:48:23;;;;;;;23.58;13.35;;;-3275.50;93.20;;;;;;5039267;28;20041;-41
2022/12/15 07:50:56;;;;;;;19.20;12.02;;;-3275.50;93.30;;;;;;5030528;28;20053;-40
2022/12/15 07:53:25;;;;;;;19.25;11.52;;;-3275.50;93.30;;;;;;5019482;28;20116;-42
2022/12/15 07:55:57;;;;;;;23.80;13.63;;;-3275.60;93.30;;;;;;5021801;28;20113;-41
2022/12/15 07:58:28;;;;;;;21.27;13.73;;;-3275.60;93.30;;;;;;5031137;28;20411;-42
2022/12/15 08:00:59;;;;;;;18.85;13.43;;;-3275.60;93.30;;;;;;5018900;28;20132;-43
2022/12/15 08:03:26;;;;;;;19.73;14.43;;;-3275.60;93.30;;;;;;5024154;28;20037;-40
2022/12/15 08:05:53;;;;;;;21.95;14.20;;;-3275.60;93.20;;;;;;5025976;28;20048;-42
2022/12/15 08:08:21;;;;;;;23.20;13.10;;;-3275.60;93.20;;;;;;5020981;28;20056;-42
2022/12/15 08:10:48;;;;;;;20.15;13.30;;;-3275.60;93.10;;;;;;5040127;28;20021;-43
2022/12/15 08:13:14;;;;;;;16.83;13.70;;;-3275.60;93.10;;;;;;5034561;28;20040;-40
2022/12/15 08:15:40;;;;;;;20.08;13.23;;;-3275.60;93.00;;;;;;5021196;28;20030;-40
2022/12/15 08:18:08;;;;;;;20.58;12.32;;;-3275.60;93.00;;;;;;5032209;28;20029;-41
2022/12/15 08:20:35;;;;;;;18.67;11.80;;;-3275.60;92.90;;;;;;5033352;28;20025;-42
2022/12/15 08:23:02;;;;;;;17.58;11.90;;;-3275.70;93.00;;;;;;5025807;28;20029;-41
2022/12/15 08:25:29;;;;;;;21.17;12.60;;;-3275.70;92.90;;;;;;5023977;28;20128;-41
2022/12/15 08:27:59;;;;;;;24.58;13.55;;;-3275.80;92.90;;;;;;5031942;28;20565;-40
2022/12/15 08:30:25;;;;;;;19.35;12.00;;;-3275.90;92.80;;;;;;5030820;28;20029;-44
2022/12/15 08:32:51;;;;;;;18.92;12.95;;;-3275.90;92.70;;;;;;5032199;28;20721;-41
2022/12/15 08:35:18;;;;;;;22.45;12.73;;;-3275.80;92.50;;;;;;5030076;28;20048;-43
2022/12/15 08:37:45;;;;;;;18.10;11.60;;;-3275.80;92.40;;;;;;5040061;28;20591;-40
2022/12/15 08:40:12;;;;;;;19.20;13.40;;;-3275.80;92.30;;;;;;5032548;28;20029;-40
2022/12/15 08:42:39;;;;;;;27.95;13.10;;;-3275.70;92.20;;;;;;5031452;28;20079;-42
2022/12/15 08:45:06;;;;;;;20.73;12.48;;;-3275.70;92.10;;;;;;5024200;28;20559;-41
2022/12/15 08:47:33;;;;;;;17.65;9.60;;;-3275.80;92.20;;;;;;5022003;28;20052;-42
2022/12/15 08:49:59;;;;;;;15.70;10.45;;;-3275.70;92.00;;;;;;5025036;28;20577;-40
2022/12/15 08:52:25;;;;;;;14.30;10.57;;;-3275.70;92.00;;;;;;5028269;28;20044;-42
2022/12/15 08:54:52;;;;;;;12.45;8.65;;;-3275.80;91.90;;;;;;5023709;28;20029;-42
2022/12/15 08:57:18;;;;;;;15.95;9.60;;;-3275.70;91.90;;;;;;5029789;28;20108;-42
2022/12/15 08:59:44;;;;;;;15.30;9.02;;;-3275.80;91.90;;;;;;5020643;28;20125;-41
2022/12/15 09:02:11;;;;;;;12.75;9.35;;;-3275.80;92.00;;;;;;5020333;28;20481;-42
2022/12/15 09:04:39;;;;;;;23.73;9.43;;;-3275.80;91.90;;;;;;5027002;28;20038;-40
2022/12/15 09:07:07;;;;;;;15.32;8.90;;;-3275.90;92.00;;;;;;5031473;28;20037;-42
2022/12/15 09:09:34;;;;;;;16.80;10.10;;;-3276.00;92.10;;;;;;5027515;28;20044;-41
2022/12/15 09:12:00;;;;;;;24.23;11.50;;;-3276.10;92.20;;;;;;5032212;28;20045;-40
2022/12/15 09:14:28;;;;;;;15.43;10.10;;;-3276.20;92.10;;;;;;5037163;28;20334;-40
2022/12/15 09:16:55;;;;;;;15.25;10.25;;;-3276.30;92.10;;;;;;5035690;28;20030;-43
2022/12/15 09:19:22;;;;;;;17.77;9.45;;;-3276.50;92.00;;;;;;5033210;28;20040;-41
2022/12/15 09:21:49;;;;;;;16.23;10.40;;;-3276.50;91.90;;;;;;5046881;28;20033;-41
2022/12/15 09:24:15;;;;;;;13.65;9.88;;;-3276.50;91.70;;;;;;5032390;28;20033;-41
2022/12/15 09:26:43;;;;;;;14.65;9.15;;;-3276.60;91.60;;;;;;5039525;28;20507;-48
2022/12/15 09:29:14;;;;;;;17.30;10.00;;;-3276.60;91.40;;;;;;5035769;28;20022;-40
2022/12/15 09:31:43;;;;;;;13.02;9.35;;;-3276.70;91.20;;;;;;5032128;28;20471;-41
2022/12/15 09:34:16;;;;;;;13.00;8.90;;;-3276.60;91.10;;;;;;5038069;28;20041;-43
2022/12/15 09:36:43;;;;;;;14.15;8.15;;;-3276.60;90.90;;;;;;5031796;28;20041;-46
2022/12/15 09:39:11;;;;;;;13.63;8.52;;;-3276.60;90.70;;;;;;5025621;28;20040;-42
2022/12/15 09:41:39;;;;;;;15.73;9.20;;;-3276.60;90.60;;;;;;5026873;28;20025;-41
2022/12/15 09:44:17;;;;;;;12.25;8.68;;;-3276.60;90.60;;;;;;5038375;28;20029;-43
2022/12/15 09:47:21;;;;;;;13.80;9.30;;;-3276.60;90.60;;;;;;5027180;28;20021;-41
2022/12/15 09:49:57;;;;;;;13.40;7.80;;;-3276.60;90.40;;;;;;5033877;28;20025;-43
2022/12/15 09:52:48;;;;;;;11.95;7.63;;;-3276.50;90.20;;;;;;5031981;28;20018;-41
2022/12/15 09:55:26;;;;;;;13.85;8.40;;;-3276.60;90.30;;;;;;5022198;28;20053;-42
2022/12/15 09:58:10;;;;;;;15.07;8.38;;;-3276.60;90.30;;;;;;5028138;28;20026;-40
2022/12/15 10:01:07;;;;;;;14.07;9.20;;;-3276.70;90.30;;;;;;5016579;28;20500;-41
2022/12/15 10:04:08;;;;;;;13.98;8.20;;;-3276.70;90.30;;;;;;5026211;28;20048;-40
2022/12/15 10:06:49;;;;;;;12.65;7.82;;;-3276.70;90.30;;;;;;5032292;28;20486;-41
2022/12/15 10:09:36;;;;;;;10.85;7.07;;;-3276.70;90.30;;;;;;5032401;28;20035;-43
2022/12/15 10:12:24;;;;;;;10.90;7.72;;;-3276.70;90.20;;;;;;5031921;28;20021;-41
2022/12/15 10:15:19;;;;;;;14.02;8.50;;;-3276.60;90.30;;;;;;5017527;28;20047;-43
2022/12/15 10:18:10;;;;;;;13.75;8.63;;;-3276.60;90.40;;;;;;5038091;28;20040;-41
2022/12/15 10:20:37;;;;;;;16.75;10.23;;;-3276.70;90.40;;;;;;5029412;28;20096;-41
2022/12/15 10:23:15;;;;;;;15.43;8.70;;;0.00;90.50;;;;;;5030026;28;20026;-41
2022/12/15 10:25:49;;;;;;;18.90;7.93;;;0.00;90.70;;;;;;5031633;28;20111;-42
2022/12/15 10:28:29;;;;;;;14.48;8.15;;;0.00;90.80;;;;;;5030868;28;20068;-45
2022/12/15 10:30:58;;;;;;;14.00;8.45;;;0.10;90.80;;;;;;5025339;28;20065;-41
2022/12/15 10:33:30;;;;;;;12.57;7.17;;;0.10;90.60;;;;;;5029362;28;20022;-44
2022/12/15 10:35:56;;;;;;;14.10;8.30;;;0.10;90.70;;;;;;5030459;28;20041;-42
2022/12/15 10:38:39;;;;;;;14.00;7.68;;;0.30;90.70;;;;;;5034247;28;20044;-41
2022/12/15 10:41:09;;;;;;;13.02;7.45;;;0.30;90.50;;;;;;5025146;28;20037;-41
2022/12/15 10:43:39;;;;;;;16.35;8.98;;;0.40;90.50;;;;;;5030536;28;20025;-43
2022/12/15 10:46:24;;;;;;;12.27;8.48;;;0.30;90.20;;;;;;5022781;28;20351;-41
2022/12/15 10:48:56;;;;;;;15.30;8.63;;;0.40;90.10;;;;;;5031793;28;20025;-45
2022/12/15 10:51:45;;;;;;;12.35;7.72;;;0.40;89.90;;;;;;5024397;28;20034;-41
2022/12/15 10:54:35;;;;;;;10.43;6.97;;;0.40;89.70;;;;;;5025100;28;20037;-44
2022/12/15 10:57:18;;;;;;;11.70;8.38;;;0.40;89.60;;;;;;5020854;28;20048;-43
2022/12/15 10:59:45;;;;;;;13.13;9.32;;;0.40;89.80;;;;;;5028382;28;20073;-40
2022/12/15 11:02:35;;;;;;;15.48;9.02;;;0.30;89.50;;;;;;5033374;28;20030;-46
2022/12/15 11:05:16;;;;;;;15.10;9.38;;;0.30;89.50;;;;;;5031212;28;20360;-42
2022/12/15 11:08:29;;;;;;;16.30;8.55;;;0.30;89.50;;;;;;5034942;28;20463;-43
2022/12/15 11:14:10;;;;;;;13.35;8.20;;;0.30;89.50;;;;;;5033548;28;20379;-40
2022/12/15 11:16:45;;;;;;;13.50;7.63;;;0.30;89.50;;;;;;5036233;28;20025;-41
2022/12/15 11:19:15;;;;;;;15.20;7.57;;;0.30;89.50;;;;;;5027982;28;20064;-41
2022/12/15 11:21:52;;;;;;;11.52;7.60;;;0.40;89.70;;;;;;5031050;28;20052;-42
2022/12/15 11:24:28;;;;;;;15.38;9.32;;;0.50;89.80;;;;;;5025322;28;20061;-43
2022/12/15 11:27:05;;;;;;;18.00;9.40;;;0.50;89.70;;;;;;5034677;28;20037;-43
2022/12/15 11:30:02;;;;;;;14.25;8.65;;;0.60;89.70;;;;;;5033292;28;20351;-40
2022/12/15 11:32:33;;;;;;;16.67;8.48;;;0.60;89.60;;;;;;5025043;28;20467;-41
2022/12/15 11:35:00;;;;;;;11.15;9.15;;;0.70;89.80;;;;;;5029920;28;20065;-42
2022/12/15 11:38:12;;;;;;;14.18;8.93;;;0.80;89.80;;;;;;5019468;28;20347;-43
2022/12/15 11:40:57;;;;;;;11.73;8.45;;;0.90;89.80;;;;;;5032818;28;20037;-46
2022/12/15 11:43:33;;;;;;;12.88;7.93;;;0.90;89.60;;;;;;5025144;28;20057;-41
2022/12/15 11:46:16;;;;;;;14.27;9.15;;;0.90;89.50;;;;;;5029286;28;20025;-42
2022/12/15 11:49:21;;;;;;;15.77;9.95;;;1.00;89.50;;;;;;5031864;28;20068;-44
2022/12/15 11:52:18;;;;;;;12.93;9.23;;;1.10;89.40;;;;;;5015301;28;20026;-45
2022/12/15 11:55:06;;;;;;;13.07;8.07;;;1.00;89.10;;;;;;5032623;28;20087;-47
2022/12/15 11:57:51;;;;;;;11.98;8.25;;;1.00;89.20;;;;;;5034286;28;20037;-42
2022/12/15 12:00:40;;;;;;;12.82;8.63;;;1.10;89.30;;;;;;5028310;28;20041;-44
2022/12/15 12:03:44;;;;;;;14.93;7.95;;;1.20;89.20;;;;;;5033737;28;20025;-46
2022/12/15 12:06:33;;;;;;;11.77;8.52;;;1.10;89.10;;;;;;5033460;28;20087;-44
2022/12/15 12:09:28;;;;;;;14.73;9.05;;;1.10;88.80;;;;;;5043661;28;20096;-45
2022/12/15 12:12:22;;;;;;;9.85;7.22;;;1.00;88.90;;;;;;5033558;28;20029;-46
2022/12/15 12:15:01;;;;;;;13.65;8.00;;;1.00;88.90;;;;;;5014533;28;20783;-48
2022/12/15 12:17:44;;;;;;;12.57;8.40;;;1.00;89.10;;;;;;5038658;28;20065;-45
2022/12/15 12:20:22;;;;;;;11.60;8.00;;;1.00;89.00;;;;;;5033468;28;20087;-46
2022/12/15 12:23:11;;;;;;;11.13;7.82;;;1.00;88.90;;;;;;5020664;28;20040;-45
2022/12/15 12:25:57;;;;;;;15.05;8.07;;;1.00;88.90;;;;;;5013781;28;20061;-45
2022/12/15 12:28:49;;;;;;;12.13;8.15;;;1.00;89.00;;;;;;5026194;28;20045;-47
2022/12/15 12:31:40;;;;;;;14.63;8.00;;;1.10;89.00;;;;;;5032761;28;20045;-45
2022/12/15 12:34:13;;;;;;;14.95;8.90;;;1.10;89.00;;;;;;5033354;28;20504;-45
2022/12/15 12:36:42;;;;;;;14.30;8.07;;;1.00;88.90;;;;;;5034409;28;20455;-45
2022/12/15 12:39:18;;;;;;;14.80;8.20;;;1.00;89.10;;;;;;5024781;28;20030;-47
2022/12/15 12:41:54;;;;;;;18.20;10.27;;;1.00;89.10;;;;;;5020880;28;20668;-47
2022/12/15 12:44:31;;;;;;;14.50;8.57;;;1.00;89.10;;;;;;5031377;28;20052;-46
2022/12/15 12:46:58;;;;;;;11.23;7.22;;;1.00;89.20;;;;;;5031028;28;20036;-44
2022/12/15 12:49:45;;;;;;;17.17;8.85;;;1.00;89.30;;;;;;5025620;28;20898;-43
2022/12/15 12:52:34;;;;;;;13.43;7.95;;;1.00;89.40;;;;;;5025171;28;20029;-44
2022/12/15 12:55:16;;;;;;;13.57;8.33;;;1.00;89.60;;;;;;5032566;28;20060;-48
2022/12/15 12:57:44;;;;;;;15.60;10.15;;;1.10;89.70;;;;;;5028902;28;20402;-48
2022/12/15 13:00:31;;;;;;;14.27;8.25;;;1.20;89.70;;;;;;5032827;28;20474;-49
2022/12/15 13:03:19;;;;;;;16.10;8.77;;;1.30;89.80;;;;;;5025258;28;20044;-47
2022/12/15 13:05:48;;;;;;;12.85;9.50;;;1.30;89.70;;;;;;5028005;28;20029;-48
2022/12/15 13:08:45;;;;;;;12.75;7.97;;;1.30;89.60;;;;;;5031071;28;20640;-48
2022/12/15 13:11:43;;;;;;;10.00;7.57;;;1.30;89.50;;;;;;5032436;28;20041;-47
2022/12/15 13:14:16;;;;;;;14.75;9.57;;;1.30;89.50;;;;;;5022447;28;20352;-46
2022/12/15 13:16:45;;;;;;;14.80;9.13;;;1.20;89.30;;;;;;5025606;28;20033;-46
2022/12/15 13:19:12;;;;;;;14.57;11.10;;;1.20;89.40;;;;;;5031561;28;20029;-49
2022/12/15 13:21:51;;;;;;;14.00;8.55;;;1.10;89.50;;;;;;5032630;28;20033;-47
2022/12/15 13:24:29;;;;;;;15.45;9.63;;;1.10;89.70;;;;;;5036928;28;20038;-46
2022/12/15 13:27:12;;;;;;;12.82;8.93;;;1.00;89.60;;;;;;5019726;28;20037;-45
2022/12/15 13:30:02;;;;;;;13.15;8.65;;;1.10;89.70;;;;;;5024833;28;20088;-45
2022/12/15 13:32:35;;;;;;;14.27;8.80;;;1.00;89.70;;;;;;5044439;28;20087;-45
2022/12/15 13:35:30;;;;;;;11.13;7.97;;;1.00;89.80;;;;;;5025120;28;20026;-45
2022/12/15 13:38:17;;;;;;;19.40;11.05;;;1.00;89.80;;;;;;5036291;28;20048;-48
2022/12/15 13:40:50;;;;;;;13.90;9.23;;;1.00;89.80;;;;;;5026270;28;20040;-45
2022/12/15 13:43:25;;;;;;;11.55;8.63;;;1.00;89.90;;;;;;5020107;28;20026;-51
2022/12/15 13:45:55;;;;;;;15.65;9.85;;;1.00;89.90;;;;;;5028376;28;20036;-45
2022/12/15 13:48:35;;;;;;;14.90;9.35;;;1.00;89.90;;;;;;5031189;28;20473;-44
2022/12/15 13:51:19;;;;;;;;;;;1.00;90.10;;;;;;5033141;28;20104;-49
2022/12/15 13:53:59;;;;;;;14.38;9.60;;;1.00;90.20;;;;;;5021922;28;19920;-44
2022/12/15 13:56:46;;;;;;;12.10;8.82;;;1.10;90.20;;;;;;5024899;28;20363;-49
2022/12/15 13:59:26;;;;;;;17.92;9.75;;;1.00;90.30;;;;;;5023611;28;20084;-48
2022/12/15 14:01:53;;;;;;;11.63;8.88;;;1.10;90.30;;;;;;5032111;28;20489;-46
2022/12/15 14:04:20;;;;;;;12.25;8.65;;;1.10;90.30;;;;;;5031050;28;20037;-48
2022/12/15 14:07:00;;;;;;;14.13;8.48;;;1.10;90.20;;;;;;5027865;28;20022;-46
2022/12/15 14:09:40;;;;;;;13.90;8.13;;;1.00;90.20;;;;;;5029225;28;20014;-49
2022/12/15 14:12:15;;;;;;;15.45;8.63;;;1.00;90.20;;;;;;5014298;28;20041;-47
2022/12/15 14:14:48;;;;;;;18.13;9.70;;;1.00;90.30;;;;;;5031112;28;20037;-49
2022/12/15 14:17:17;;;;;;;12.73;8.60;;;1.10;90.30;;;;;;5031194;28;20033;-47
2022/12/15 14:19:48;;;;;;;13.85;9.32;;;1.10;90.40;;;;;;5033388;28;20063;-47
2022/12/15 14:22:32;;;;;;;20.40;10.85;;;1.10;90.40;;;;;;5032372;28;20025;-52
2022/12/15 14:25:15;;;;;;;13.85;8.52;;;1.10;90.50;;;;;;5032313;28;20037;-51
2022/12/15 14:27:40;;;;;;;13.00;9.00;;;1.10;90.50;;;;;;5035459;28;20056;-49
2022/12/15 14:30:29;;;;;;;15.30;8.90;;;1.10;90.60;;;;;;5048894;28;20466;-51
2022/12/15 14:33:08;;;;;;;15.45;9.85;;;1.20;90.90;;;;;;5056102;28;20029;-52
2022/12/15 14:35:41;;;;;;;14.75;10.35;;;1.30;91.00;;;;;;5038336;28;20433;-51
2022/12/15 14:38:15;;;;;;;15.40;9.05;;;1.30;90.80;;;;;;5030072;28;20037;-52
2022/12/15 14:40:44;;;;;;;12.75;8.98;;;1.30;90.60;;;;;;5035391;28;20025;-52
2022/12/15 14:43:24;;;;;;;15.73;8.98;;;1.30;90.50;;;;;;5020364;28;20097;-52
2022/12/15 14:45:54;;;;;;;13.88;9.93;;;1.20;90.50;;;;;;5033715;28;20095;-54
2022/12/15 14:48:30;;;;;;;19.25;8.95;;;1.20;90.50;;;;;;5029722;28;20116;-53
2022/12/15 14:51:03;;;;;;;15.50;9.32;;;1.30;90.60;;;;;;5024760;28;20030;-54
2022/12/15 14:53:38;;;;;;;22.65;11.10;;;1.20;90.50;;;;;;5024334;28;20022;-50
2022/12/15 14:56:19;;;;;;;13.88;10.05;;;1.20;90.60;;;;;;5027520;28;20036;-48
2022/12/15 14:58:56;;;;;;;14.20;9.23;;;1.20;90.70;;;;;;5025608;28;20026;-49
2022/12/15 15:01:39;;;;;;;15.95;9.23;;;1.20;90.70;;;;;;5025166;28;20021;-53
2022/12/15 15:04:21;;;;;;;13.43;9.43;;;1.20;90.70;;;;;;5023800;28;20025;-51
2022/12/15 15:06:57;;;;;;;12.05;8.48;;;1.10;90.70;;;;;;5020588;28;20057;-52
2022/12/15 15:09:30;;;;;;;14.35;8.18;;;1.10;90.70;;;;;;5014561;28;20054;-48
2022/12/15 15:12:04;;;;;;;19.98;10.05;;;1.00;90.70;;;;;;5043348;28;20117;-54
2022/12/15 15:14:48;;;;;;;16.40;9.00;;;1.00;90.80;;;;;;5041985;28;20479;-48